createdAt,value
2023-02-23T00:00:47.285Z,21.67
2023-02-23T00:03:49.742Z,21.53
2023-02-23T00:06:52.208Z,22.27
2023-02-23T00:09:53.647Z,21.70
2023-02-23T00:12:55.029Z,21.97
2023-02-23T00:15:56.447Z,23.20
2023-02-23T00:19:00.277Z,22.13
2023-02-23T00:22:01.759Z,20.80
2023-02-23T00:25:08.584Z,21.73
2023-02-23T00:28:10.066Z,21.60
2023-02-23T00:31:11.799Z,20.67
2023-02-23T00:34:15.377Z,22.67
2023-02-23T00:37:18.347Z,21.60
2023-02-23T00:40:23.740Z,21.00
2023-02-23T00:43:25.263Z,21.10
2023-02-23T00:46:29.854Z,21.73
2023-02-23T00:49:32.483Z,22.63
2023-02-23T00:52:33.927Z,22.60
2023-02-23T00:55:41.290Z,22.20
2023-02-23T00:58:42.964Z,22.77
2023-02-23T01:01:44.907Z,21.57
2023-02-23T01:04:46.349Z,21.03
2023-02-23T01:07:49.005Z,20.67
2023-02-23T01:10:53.987Z,22.13
2023-02-23T01:13:57.579Z,21.77
2023-02-23T01:16:59.984Z,21.73
2023-02-23T01:20:01.366Z,20.90
2023-02-23T01:23:04.014Z,21.83
2023-02-23T01:26:05.464Z,22.37
2023-02-23T01:29:13.141Z,21.77
2023-02-23T01:32:14.610Z,22.63
2023-02-23T01:35:16.049Z,22.17
2023-02-23T01:38:18.707Z,22.03
2023-02-23T01:41:26.825Z,21.37
2023-02-23T01:44:31.318Z,20.43
2023-02-23T01:47:32.826Z,22.07
2023-02-23T01:50:52.621Z,21.97
2023-02-23T01:54:01.072Z,22.03
2023-02-23T01:57:04.874Z,22.57
2023-02-23T02:00:13.013Z,21.77
2023-02-23T02:03:24.119Z,19.43
2023-02-23T02:06:29.952Z,22.33
2023-02-23T02:09:37.741Z,21.37
2023-02-23T02:12:40.766Z,22.33
2023-02-23T02:15:57.134Z,22.40
2023-02-23T02:19:10.178Z,22.30
2023-02-23T02:22:48.103Z,21.90
2023-02-23T02:25:58.591Z,22.73
2023-02-23T02:29:21.940Z,23.37
2023-02-23T02:32:55.999Z,21.40
2023-02-23T02:36:27.974Z,22.07
2023-02-23T02:40:17.078Z,23.20
2023-02-23T02:43:40.634Z,22.47
2023-02-23T02:46:51.931Z,22.30
2023-02-23T02:50:14.875Z,24.07
2023-02-23T02:53:34.524Z,24.43
2023-02-23T02:56:40.330Z,22.53
2023-02-23T03:00:06.227Z,22.43
2023-02-23T03:04:05.496Z,22.60
2023-02-23T03:07:49.997Z,22.17
2023-02-23T03:11:30.991Z,21.63
2023-02-23T03:15:29.941Z,22.40
2023-02-23T03:19:00.689Z,21.07
2023-02-23T03:22:28.809Z,23.07
2023-02-23T03:26:24.182Z,23.00
2023-02-23T03:30:07.368Z,23.37
2023-02-23T03:33:36.372Z,22.63
2023-02-23T03:37:02.139Z,23.00
2023-02-23T03:40:40.119Z,23.93
2023-02-23T03:44:15.558Z,23.57
2023-02-23T03:47:39.750Z,24.37
2023-02-23T03:51:05.831Z,23.13
2023-02-23T03:54:35.706Z,25.03
2023-02-23T03:57:58.027Z,25.20
2023-02-23T04:01:21.868Z,25.07
2023-02-23T04:04:44.167Z,23.97
2023-02-23T04:08:06.081Z,26.17
2023-02-23T04:11:34.961Z,25.83
2023-02-23T04:14:59.281Z,25.60
2023-02-23T04:18:00.830Z,26.77
2023-02-23T04:21:03.365Z,24.80
2023-02-23T04:24:04.924Z,26.77
2023-02-23T04:27:06.336Z,25.03
2023-02-23T04:30:11.368Z,26.53
2023-02-23T04:33:12.922Z,27.83
2023-02-23T04:36:14.325Z,26.27
2023-02-23T04:39:15.702Z,25.90
2023-02-23T04:42:18.082Z,25.27
2023-02-23T04:45:20.008Z,25.53
2023-02-23T04:48:21.406Z,25.77
2023-02-23T04:51:22.806Z,25.67
2023-02-23T04:54:24.201Z,25.17
2023-02-23T04:57:25.609Z,25.30
2023-02-23T05:00:29.260Z,25.37
2023-02-23T05:03:30.652Z,24.20
2023-02-23T05:06:32.625Z,25.37
2023-02-23T05:09:34.905Z,24.77
2023-02-23T05:12:36.322Z,25.50
2023-02-23T05:15:38.629Z,24.43
2023-02-23T05:18:40.146Z,24.03
2023-02-23T05:21:41.801Z,24.67
2023-02-23T05:24:43.171Z,24.03
2023-02-23T05:27:44.581Z,23.33
2023-02-23T05:30:46.017Z,22.33
2023-02-23T05:33:47.458Z,23.57
2023-02-23T05:36:48.853Z,22.87
2023-02-23T05:39:50.373Z,23.30
2023-02-23T05:42:51.789Z,22.87
2023-02-23T05:45:53.238Z,23.53
2023-02-23T05:49:00.051Z,22.80
2023-02-23T05:52:01.460Z,22.63
2023-02-23T05:55:02.837Z,22.50
2023-02-23T05:58:04.328Z,22.70
2023-02-23T06:01:05.711Z,22.27
2023-02-23T06:04:07.258Z,21.80
2023-02-23T06:07:08.703Z,21.73
2023-02-23T06:10:10.725Z,22.93
2023-02-23T06:13:12.615Z,21.47
2023-02-23T06:16:14.174Z,21.37
2023-02-23T06:19:15.823Z,20.70
2023-02-23T06:22:17.696Z,21.60
2023-02-23T06:25:19.094Z,20.27
2023-02-23T06:28:20.616Z,22.13
2023-02-23T06:31:22.232Z,20.73
2023-02-23T06:34:23.739Z,21.73
2023-02-23T06:37:25.245Z,21.00
2023-02-23T06:40:26.994Z,21.43
2023-02-23T06:43:29.531Z,19.90
2023-02-23T06:46:33.047Z,20.80
2023-02-23T06:49:34.527Z,20.97
2023-02-23T06:52:36.089Z,20.30
2023-02-23T06:55:37.541Z,21.77
2023-02-23T06:58:38.929Z,20.77
2023-02-23T07:01:40.391Z,19.73
2023-02-23T07:04:41.855Z,20.63
2023-02-23T07:07:43.486Z,20.70
2023-02-23T07:10:45.824Z,19.00
2023-02-23T07:13:47.308Z,20.37
2023-02-23T07:16:48.772Z,20.07
2023-02-23T07:19:50.170Z,20.30
2023-02-23T07:22:52.019Z,19.17
2023-02-23T07:25:56.505Z,19.83
2023-02-23T07:28:57.936Z,19.53
2023-02-23T07:31:59.872Z,19.63
2023-02-23T07:35:01.485Z,19.50
2023-02-23T07:38:04.302Z,20.67
2023-02-23T07:41:05.864Z,18.97
2023-02-23T07:44:07.676Z,20.07
2023-02-23T07:47:09.062Z,19.20
2023-02-23T07:50:12.585Z,18.43
2023-02-23T07:53:14.518Z,18.60
2023-02-23T07:56:16.010Z,19.17
2023-02-23T07:59:17.550Z,19.10
2023-02-23T08:02:18.969Z,18.37
2023-02-23T08:05:20.488Z,18.77
2023-02-23T08:08:22.245Z,18.40
2023-02-23T08:11:23.657Z,19.20
2023-02-23T08:14:25.266Z,18.90
2023-02-23T08:17:27.395Z,18.60
2023-02-23T08:20:28.792Z,19.87
2023-02-23T08:23:32.126Z,19.00
2023-02-23T08:26:35.835Z,19.17
2023-02-23T08:29:37.353Z,19.87
2023-02-23T08:32:38.814Z,19.77
2023-02-23T08:35:40.306Z,18.73
2023-02-23T08:38:41.690Z,19.17
2023-02-23T08:41:43.086Z,19.17
2023-02-23T08:44:44.755Z,17.30
2023-02-23T08:47:46.203Z,18.47
2023-02-23T08:50:49.787Z,17.47
2023-02-23T08:53:51.324Z,17.10
2023-02-23T08:56:56.084Z,16.20
2023-02-23T08:59:57.538Z,16.60
2023-02-23T09:02:58.925Z,14.33
2023-02-23T09:06:08.999Z,13.10
2023-02-23T09:09:10.566Z,14.27
2023-02-23T09:12:11.954Z,12.80
2023-02-23T09:15:13.485Z,13.57
2023-02-23T09:18:14.948Z,11.90
2023-02-23T09:21:20.935Z,11.27
2023-02-23T09:24:23.456Z,10.97
2023-02-23T09:27:24.853Z,9.93
2023-02-23T09:30:27.151Z,10.00
2023-02-23T09:33:28.619Z,10.37
2023-02-23T09:36:31.555Z,11.13
2023-02-23T09:39:38.683Z,9.40
2023-02-23T09:42:45.573Z,9.90
2023-02-23T09:45:58.373Z,9.93
2023-02-23T09:49:03.707Z,9.93
2023-02-23T09:52:10.711Z,9.10
2023-02-23T09:55:14.234Z,9.47
2023-02-23T09:58:23.614Z,9.10
2023-02-23T10:01:44.990Z,10.10
2023-02-23T10:04:50.279Z,8.60
2023-02-23T10:07:56.586Z,9.30
2023-02-23T10:11:14.581Z,9.27
2023-02-23T10:14:35.012Z,8.80
2023-02-23T10:17:52.466Z,9.03
2023-02-23T10:21:02.856Z,7.73
2023-02-23T10:24:16.196Z,8.27
2023-02-23T10:27:20.842Z,8.57
2023-02-23T10:30:27.241Z,8.50
2023-02-23T10:33:41.390Z,7.20
2023-02-23T10:36:59.011Z,7.53
2023-02-23T10:40:00.426Z,7.43
2023-02-23T10:43:02.518Z,8.23
2023-02-23T10:46:05.783Z,7.67
2023-02-23T10:49:16.214Z,8.00
2023-02-23T10:52:34.743Z,7.30
2023-02-23T10:55:36.249Z,6.43
2023-02-23T10:58:47.583Z,6.73
2023-02-23T11:02:01.495Z,5.83
2023-02-23T11:05:05.135Z,6.33
2023-02-23T11:08:29.118Z,5.97
2023-02-23T11:11:30.623Z,5.53
2023-02-23T11:14:32.100Z,5.53
2023-02-23T11:17:36.787Z,5.70
2023-02-23T11:20:41.635Z,5.50
2023-02-23T11:23:43.468Z,5.77
2023-02-23T11:26:47.597Z,6.43
2023-02-23T11:29:52.395Z,6.10
2023-02-23T11:32:57.516Z,5.73
2023-02-23T11:36:01.139Z,6.07
2023-02-23T11:39:23.498Z,5.63
2023-02-23T11:42:33.433Z,4.67
2023-02-23T11:45:51.136Z,5.57
2023-02-23T11:48:59.636Z,6.70
2023-02-23T11:52:02.034Z,5.80
2023-02-23T11:55:07.826Z,5.70
2023-02-23T11:58:47.343Z,6.53
2023-02-23T12:01:54.185Z,4.93
2023-02-23T12:05:07.286Z,4.90
2023-02-23T12:08:19.525Z,4.93
2023-02-23T12:11:28.109Z,4.93
2023-02-23T12:14:37.894Z,4.57
2023-02-23T12:17:46.915Z,4.90
2023-02-23T12:20:54.121Z,4.97
2023-02-23T12:24:06.028Z,5.20
2023-02-23T12:27:42.980Z,5.97
2023-02-23T12:30:59.479Z,6.63
2023-02-23T12:34:22.786Z,6.33
2023-02-23T12:37:30.151Z,6.37
2023-02-23T12:40:35.285Z,5.80
2023-02-23T12:43:49.220Z,6.10
2023-02-23T12:46:54.784Z,6.03
2023-02-23T12:50:13.256Z,5.60
2023-02-23T12:53:43.767Z,5.43
2023-02-23T12:56:57.959Z,6.30
2023-02-23T13:00:41.321Z,5.70
2023-02-23T13:04:19.983Z,6.07
2023-02-23T13:07:34.352Z,5.20
2023-02-23T13:10:44.955Z,5.50
2023-02-23T13:14:30.256Z,5.10
2023-02-23T13:17:40.347Z,6.73
2023-02-23T13:20:54.767Z,5.70
2023-02-23T13:23:59.118Z,6.80
2023-02-23T13:27:16.132Z,6.10
2023-02-23T13:30:20.556Z,5.87
2023-02-23T13:33:41.967Z,6.47
2023-02-23T13:36:45.866Z,6.43
2023-02-23T13:40:15.594Z,6.30
2023-02-23T13:43:32.439Z,6.50
2023-02-23T13:47:00.212Z,5.67
2023-02-23T13:50:54.188Z,5.47
2023-02-23T13:53:58.856Z,6.00
2023-02-23T13:57:05.496Z,6.13
2023-02-23T14:00:18.943Z,5.37
2023-02-23T14:03:24.405Z,6.03
2023-02-23T14:06:29.453Z,5.77
2023-02-23T14:09:35.693Z,6.33
2023-02-23T14:12:42.563Z,6.20
2023-02-23T14:15:53.547Z,6.90
2023-02-23T14:19:03.893Z,7.30
2023-02-23T14:22:10.417Z,6.90
2023-02-23T14:25:33.647Z,6.80
2023-02-23T14:28:38.996Z,6.87
2023-02-23T14:31:57.576Z,7.50
2023-02-23T14:35:01.753Z,7.60
2023-02-23T14:38:46.936Z,8.00
2023-02-23T14:41:53.912Z,8.97
2023-02-23T14:44:57.870Z,8.63
2023-02-23T14:48:05.181Z,8.03
2023-02-23T14:51:20.310Z,8.93
2023-02-23T14:54:30.920Z,8.87
2023-02-23T14:57:36.268Z,8.60
2023-02-23T15:00:42.683Z,10.83
2023-02-23T15:04:14.026Z,10.13
2023-02-23T15:07:25.168Z,10.43
2023-02-23T15:10:29.704Z,10.03
2023-02-23T15:13:39.804Z,10.43
2023-02-23T15:16:44.776Z,9.27
2023-02-23T15:19:48.436Z,9.40
2023-02-23T15:22:54.966Z,9.20
2023-02-23T15:25:56.857Z,9.27
2023-02-23T15:29:10.428Z,9.40
2023-02-23T15:32:18.631Z,9.07
2023-02-23T15:35:20.316Z,9.57
2023-02-23T15:38:42.935Z,8.63
2023-02-23T15:41:49.225Z,9.57
2023-02-23T15:44:57.160Z,9.83
2023-02-23T15:48:03.627Z,9.53
2023-02-23T15:51:06.922Z,9.63
2023-02-23T15:54:23.723Z,9.53
2023-02-23T15:57:34.696Z,8.90
2023-02-23T16:00:41.440Z,8.63
2023-02-23T16:03:54.547Z,8.43
2023-02-23T16:07:07.298Z,9.37
2023-02-23T16:10:20.819Z,8.73
2023-02-23T16:13:22.533Z,8.07
2023-02-23T16:16:25.466Z,8.70
2023-02-23T16:19:29.510Z,8.67
2023-02-23T16:22:32.067Z,8.57
2023-02-23T16:25:34.800Z,8.10
2023-02-23T16:28:42.000Z,8.40
2023-02-23T16:31:49.392Z,8.77
2023-02-23T16:34:57.851Z,9.00
2023-02-23T16:38:02.737Z,9.33
2023-02-23T16:41:05.192Z,9.07
2023-02-23T16:44:13.348Z,8.30
2023-02-23T16:47:23.982Z,8.50
2023-02-23T16:50:25.536Z,8.67
2023-02-23T16:53:27.025Z,8.93
2023-02-23T16:56:30.562Z,8.33
2023-02-23T16:59:32.476Z,9.00
2023-02-23T17:02:35.004Z,8.57
2023-02-23T17:05:36.408Z,9.50
2023-02-23T17:08:41.256Z,9.93
2023-02-23T17:11:47.001Z,11.83
2023-02-23T17:14:49.193Z,9.13
2023-02-23T17:17:53.195Z,10.33
2023-02-23T17:20:56.414Z,8.87
2023-02-23T17:24:02.655Z,7.97
2023-02-23T17:27:04.189Z,7.97
2023-02-23T17:30:06.910Z,8.13
2023-02-23T17:33:09.652Z,7.93
2023-02-23T17:36:14.640Z,8.17
2023-02-23T17:39:16.741Z,8.50
2023-02-23T17:42:18.723Z,8.93
2023-02-23T17:45:20.240Z,8.17
2023-02-23T17:48:22.806Z,8.07
2023-02-23T17:51:24.267Z,8.30
2023-02-23T17:54:27.585Z,7.60
2023-02-23T17:57:30.620Z,7.40
2023-02-23T18:00:37.686Z,7.20
2023-02-23T18:03:39.768Z,7.80
2023-02-23T18:06:45.335Z,7.60
2023-02-23T18:09:49.963Z,6.83
2023-02-23T18:12:53.558Z,6.97
2023-02-23T18:16:02.575Z,6.30
2023-02-23T18:19:04.030Z,6.37
2023-02-23T18:22:07.640Z,7.50
2023-02-23T18:25:19.286Z,6.70
2023-02-23T18:28:23.567Z,6.20
2023-02-23T18:31:30.387Z,6.27
2023-02-23T18:34:31.927Z,5.80
2023-02-23T18:37:33.397Z,5.80
2023-02-23T18:40:35.814Z,6.37
2023-02-23T18:43:38.993Z,6.30
2023-02-23T18:46:42.104Z,5.80
2023-02-23T18:49:43.814Z,6.43
2023-02-23T18:52:50.866Z,6.93
2023-02-23T18:55:52.380Z,6.63
2023-02-23T18:58:59.405Z,6.80
2023-02-23T19:02:00.977Z,6.43
2023-02-23T19:05:03.069Z,5.97
2023-02-23T19:08:08.960Z,5.73
2023-02-23T19:11:11.330Z,6.30
2023-02-23T19:14:18.084Z,6.07
2023-02-23T19:17:19.679Z,9.60
2023-02-23T19:20:23.035Z,8.97
2023-02-23T19:23:24.481Z,7.67
2023-02-23T19:26:27.048Z,7.50
2023-02-23T19:29:28.461Z,7.20
2023-02-23T19:32:30.068Z,7.37
2023-02-23T19:35:31.647Z,7.43
2023-02-23T19:38:34.085Z,7.03
2023-02-23T19:41:37.689Z,7.30
2023-02-23T19:44:39.197Z,6.73
2023-02-23T19:47:40.879Z,8.03
2023-02-23T19:50:47.964Z,8.57
2023-02-23T19:53:49.495Z,7.80
2023-02-23T19:56:51.372Z,6.60
2023-02-23T19:59:52.935Z,6.50
2023-02-23T20:02:56.910Z,7.00
2023-02-23T20:05:58.435Z,8.13
2023-02-23T20:09:01.657Z,7.77
2023-02-23T20:12:03.167Z,8.80
2023-02-23T20:15:05.458Z,8.40
2023-02-23T20:18:07.760Z,7.60
2023-02-23T20:21:13.390Z,8.63
2023-02-23T20:24:15.454Z,8.07
2023-02-23T20:27:17.020Z,7.33
2023-02-23T20:30:19.424Z,7.60
2023-02-23T20:33:20.866Z,7.47
2023-02-23T20:36:23.614Z,7.77
2023-02-23T20:39:26.736Z,7.97
2023-02-23T20:42:28.509Z,7.83
2023-02-23T20:45:29.895Z,7.40
2023-02-23T20:48:33.189Z,7.90
2023-02-23T20:51:34.593Z,8.73
2023-02-23T20:54:36.572Z,8.97
2023-02-23T20:57:38.083Z,11.00
2023-02-23T21:00:39.899Z,9.23
2023-02-23T21:03:41.529Z,8.70
2023-02-23T21:06:43.041Z,9.60
2023-02-23T21:09:45.208Z,9.90
2023-02-23T21:12:46.661Z,10.10
2023-02-23T21:15:58.445Z,10.47
2023-02-23T21:19:05.863Z,10.33
2023-02-23T21:22:07.542Z,11.23
2023-02-23T21:25:11.011Z,11.27
2023-02-23T21:28:12.440Z,12.40
2023-02-23T21:31:14.979Z,12.20
2023-02-23T21:34:19.365Z,11.77
2023-02-23T21:37:20.731Z,11.50
2023-02-23T21:40:23.536Z,11.90
2023-02-23T21:43:27.838Z,12.83
2023-02-23T21:46:29.366Z,13.60
2023-02-23T21:49:30.895Z,13.20
2023-02-23T21:52:32.981Z,13.80
2023-02-23T21:55:38.434Z,13.00
2023-02-23T21:58:47.349Z,12.73
2023-02-23T22:01:48.922Z,12.67
2023-02-23T22:04:50.619Z,14.17
2023-02-23T22:07:54.083Z,14.30
2023-02-23T22:10:55.501Z,13.80
2023-02-23T22:13:59.020Z,13.53
2023-02-23T22:17:00.647Z,14.53
2023-02-23T22:20:05.214Z,15.30
2023-02-23T22:23:06.598Z,16.60
2023-02-23T22:26:09.006Z,15.80
2023-02-23T22:29:10.638Z,15.33
2023-02-23T22:32:12.505Z,17.03
2023-02-23T22:35:14.023Z,17.03
2023-02-23T22:38:18.967Z,17.03
2023-02-23T22:41:20.747Z,19.10
2023-02-23T22:44:22.526Z,18.33
2023-02-23T22:47:24.250Z,18.07
2023-02-23T22:50:25.716Z,18.07
2023-02-23T22:53:28.061Z,19.07
2023-02-23T22:56:29.445Z,18.20
2023-02-23T22:59:30.878Z,17.50
2023-02-23T23:02:32.457Z,19.33
2023-02-23T23:05:33.926Z,18.80
2023-02-23T23:08:40.713Z,18.70
2023-02-23T23:11:42.606Z,19.20
2023-02-23T23:14:45.488Z,18.13
2023-02-23T23:17:49.476Z,18.77
2023-02-23T23:20:50.913Z,18.30
2023-02-23T23:23:55.773Z,18.37
2023-02-23T23:27:01.214Z,18.43
2023-02-23T23:30:05.669Z,17.70
2023-02-23T23:33:08.037Z,18.00
2023-02-23T23:36:10.056Z,16.47
2023-02-23T23:39:12.708Z,16.93
2023-02-23T23:42:14.139Z,17.07
2023-02-23T23:45:18.217Z,16.30
2023-02-23T23:48:21.630Z,16.00
2023-02-23T23:51:27.344Z,17.03
2023-02-23T23:54:30.887Z,16.83
2023-02-23T23:57:33.826Z,17.37
